Time;durP1;ratioP1;P1;durP2;ratioP2;P2;SDS_P1;SDS_P2;PMS_P1;PMS_P2;Temp;Humidity;BMP_temperature;BMP_pressure;BME280_temperature;BME280_humidity;BME280_pressure;Samples;Min_cycle;Max_cycle;Signal;HPM_P1;HPM_P2
2021/12/31 00:00:39;;;;;;;1.00;0.73;;;;;;;11.51;96.54;99466.44;4953929;28;20023;-75
2021/12/31 00:03:04;;;;;;;0.30;0.30;;;;;;;11.53;98.13;99464.69;4953789;28;20081;-75
2021/12/31 00:05:29;;;;;;;0.38;0.38;;;;;;;11.55;96.81;99467.25;4954057;28;20362;-75
2021/12/31 00:07:55;;;;;;;1.80;0.60;;;;;;;11.57;96.90;99466.38;4953549;28;20023;-75
2021/12/31 00:10:20;;;;;;;0.63;0.63;;;;;;;11.42;99.58;99473.47;4953975;28;20263;-75
2021/12/31 00:12:45;;;;;;;0.32;0.32;;;;;;;11.45;98.22;99471.69;4953817;28;20034;-75
2021/12/31 00:15:12;;;;;;;0.68;0.65;;;;;;;11.28;99.45;99463.22;4953811;28;20139;-75
2021/12/31 00:17:39;;;;;;;0.40;0.40;;;;;;;11.31;98.36;99470.97;4953485;28;20027;-75
2021/12/31 00:20:10;;;;;;;1.83;0.28;;;;;;;11.45;96.28;99461.31;4952499;28;20365;-75
2021/12/31 00:25:20;;;;;;;0.38;0.38;;;;;;;11.50;96.06;99469.91;4953734;29;20465;-75
2021/12/31 00:27:45;;;;;;;0.55;0.55;;;;;;;11.27;98.74;99466.72;4953644;28;20102;-75
2021/12/31 00:30:11;;;;;;;0.45;0.45;;;;;;;11.30;97.96;99464.06;4953548;28;20488;-74
2021/12/31 00:32:37;;;;;;;0.40;0.40;;;;;;;11.51;94.06;99458.66;4953502;28;20565;-74
2021/12/31 00:35:03;;;;;;;0.80;0.80;;;;;;;11.48;96.85;99463.88;4953654;28;20030;-75
2021/12/31 00:37:30;;;;;;;2.55;0.50;;;;;;;11.33;98.43;99466.63;4953259;28;20499;-75
2021/12/31 00:39:55;;;;;;;1.38;1.27;;;;;;;11.33;97.60;99467.50;4953525;28;20031;-75
2021/12/31 00:42:21;;;;;;;0.93;0.63;;;;;;;11.43;96.47;99464.81;4953415;28;20019;-75
2021/12/31 00:44:47;;;;;;;0.50;0.50;;;;;;;11.44;96.16;99472.56;4953556;28;20492;-75
2021/12/31 00:47:12;;;;;;;1.15;1.02;;;;;;;11.48;96.67;99466.47;4953280;28;20031;-75
2021/12/31 00:49:37;;;;;;;0.57;0.55;;;;;;;11.42;96.28;99470.88;4953595;28;20106;-75
2021/12/31 00:52:03;;;;;;;0.32;0.32;;;;;;;11.43;96.45;99468.25;4953339;28;20023;-75
2021/12/31 00:54:28;;;;;;;0.45;0.45;;;;;;;11.47;95.86;99479.47;4953469;28;20030;-75
2021/12/31 00:56:59;;;;;;;0.55;0.55;;;;;;;11.47;95.90;99474.28;4953198;28;20037;-75
2021/12/31 00:59:25;;;;;;;0.70;0.70;;;;;;;11.46;95.46;99473.44;4953382;28;20028;-75
2021/12/31 05:16:04;;;;;;;0.60;0.60;;;;;;;7.13;100.00;99465.47;5669508;23;20071;-76
2021/12/31 05:18:30;;;;;;;0.77;0.77;;;;;;;7.06;100.00;99464.59;4956736;28;20337;-77
2021/12/31 05:20:55;;;;;;;0.60;0.60;;;;;;;7.13;100.00;99462.91;4956643;28;20031;-77
2021/12/31 05:23:20;;;;;;;0.70;0.70;;;;;;;7.06;100.00;99464.59;4956634;28;20039;-77
2021/12/31 05:25:46;;;;;;;0.50;0.50;;;;;;;7.02;100.00;99467.13;4956429;28;20027;-73
2021/12/31 05:28:11;;;;;;;0.40;0.40;;;;;;;6.98;100.00;99462.78;4956996;28;20024;-78
2021/12/31 05:30:36;;;;;;;0.40;0.40;;;;;;;6.86;100.00;99461.81;4956834;28;20437;-78
2021/12/31 05:33:02;;;;;;;0.63;0.63;;;;;;;6.83;100.00;99459.25;4956450;28;20034;-76
2021/12/31 05:35:27;;;;;;;0.45;0.45;;;;;;;6.81;100.00;99458.34;4956429;28;20496;-76
2021/12/31 05:37:52;;;;;;;0.45;0.45;;;;;;;6.73;100.00;99454.00;4955999;28;20034;-77
2021/12/31 05:40:18;;;;;;;1.05;0.65;;;;;;;6.80;100.00;99456.63;4956331;28;20019;-78
2021/12/31 05:42:43;;;;;;;0.43;0.43;;;;;;;6.79;100.00;99462.66;4956232;28;20491;-78
2021/12/31 05:45:09;;;;;;;0.40;0.40;;;;;;;6.74;100.00;99466.91;4956277;28;20250;-77
2021/12/31 05:47:35;;;;;;;4.95;0.60;;;;;;;6.74;100.00;99454.03;4956028;28;20027;-77
2021/12/31 05:50:04;;;;;;;2.80;1.25;;;;;;;6.70;100.00;99452.25;4956195;28;20105;-77
2021/12/31 05:52:30;;;;;;;0.88;0.88;;;;;;;6.63;100.00;99450.50;4956105;28;20366;-77
2021/12/31 05:54:55;;;;;;;2.40;0.73;;;;;;;6.58;100.00;99454.75;4956025;28;20038;-77
2021/12/31 05:57:20;;;;;;;0.85;0.82;;;;;;;6.56;100.00;99461.56;4955903;28;20113;-78
2021/12/31 05:59:45;;;;;;;0.50;0.50;;;;;;;6.49;100.00;99459.81;4956016;28;20387;-76
2021/12/31 06:02:11;;;;;;;0.73;0.73;;;;;;;6.52;100.00;99454.66;4955889;28;20027;-76
2021/12/31 06:04:37;;;;;;;0.40;0.40;;;;;;;6.50;100.00;99456.38;4955955;28;20455;-77
2021/12/31 06:07:03;;;;;;;0.40;0.40;;;;;;;6.47;100.00;99452.06;4955448;28;20030;-78
2021/12/31 06:09:30;;;;;;;0.80;0.80;;;;;;;6.63;100.00;99453.06;4955585;28;20030;-78
2021/12/31 06:11:56;;;;;;;0.70;0.70;;;;;;;6.71;100.00;99459.13;4956215;28;20031;-78
2021/12/31 06:14:21;;;;;;;0.70;0.70;;;;;;;6.61;100.00;99454.75;4955674;28;20540;-76
2021/12/31 06:16:47;;;;;;;0.88;0.88;;;;;;;6.58;100.00;99460.75;4955418;28;20031;-73
2021/12/31 06:19:13;;;;;;;0.70;0.70;;;;;;;6.54;100.00;99453.84;4955552;28;20085;-77
2021/12/31 06:21:41;;;;;;;0.60;0.60;;;;;;;6.37;100.00;99456.25;4955502;28;20015;-77
2021/12/31 06:24:07;;;;;;;0.93;0.93;;;;;;;6.27;100.00;99454.44;4955383;29;20038;-73
2021/12/31 06:26:32;;;;;;;0.82;0.82;;;;;;;6.17;100.00;99462.91;4955306;28;20027;-78
2021/12/31 06:28:58;;;;;;;0.70;0.70;;;;;;;6.11;100.00;99465.44;4955513;28;20031;-78
2021/12/31 06:31:24;;;;;;;1.65;0.77;;;;;;;6.13;100.00;99471.44;4955362;28;20023;-73
2021/12/31 06:33:50;;;;;;;0.70;0.70;;;;;;;6.02;100.00;99478.19;4955515;28;20070;-77
2021/12/31 06:36:17;;;;;;;1.02;0.85;;;;;;;6.00;100.00;99479.88;4954870;28;20027;-76
2021/12/31 06:38:43;;;;;;;0.70;0.70;;;;;;;6.03;100.00;99480.75;4955100;28;20058;-73
2021/12/31 06:41:08;;;;;;;0.40;0.40;;;;;;;6.01;100.00;99482.47;4955074;28;20027;-78
2021/12/31 06:43:34;;;;;;;0.80;0.80;;;;;;;5.97;100.00;99484.97;4955190;28;20027;-76
2021/12/31 06:45:59;;;;;;;0.50;0.50;;;;;;;5.99;100.00;99479.00;4954908;28;20023;-78
2021/12/31 06:48:24;;;;;;;0.93;0.93;;;;;;;5.99;100.00;99478.13;4955115;28;20023;-78
2021/12/31 06:50:50;;;;;;;1.98;1.13;;;;;;;6.01;100.00;99481.59;4955001;28;20224;-76
2021/12/31 06:53:15;;;;;;;0.52;0.52;;;;;;;6.04;100.00;99476.47;4954963;28;20034;-76
2021/12/31 06:55:40;;;;;;;0.43;0.43;;;;;;;5.91;100.00;99471.22;4954775;28;20416;-76
2021/12/31 06:58:06;;;;;;;0.70;0.70;;;;;;;5.96;100.00;99470.41;4954939;28;20060;-76
2021/12/31 07:00:31;;;;;;;0.85;0.85;;;;;;;5.95;100.00;99471.22;4954455;28;20042;-76
2021/12/31 07:03:08;;;;;;;1.00;0.98;;;;;;;6.03;100.00;99470.47;4954776;28;20530;-76
2021/12/31 07:05:34;;;;;;;0.73;0.73;;;;;;;6.09;100.00;99482.53;4953346;29;20412;-77
2021/12/31 07:08:00;;;;;;;0.50;0.50;;;;;;;6.08;100.00;99483.38;4954528;28;20034;-77
2021/12/31 07:10:26;;;;;;;2.00;1.30;;;;;;;6.04;100.00;99486.75;4954736;28;20058;-76
2021/12/31 07:12:56;;;;;;;0.95;0.55;;;;;;;6.00;100.00;99485.03;4954630;28;20074;-73
2021/12/31 07:15:21;;;;;;;1.23;1.13;;;;;;;6.09;100.00;99492.81;4954481;28;20477;-78
2021/12/31 07:17:47;;;;;;;1.08;1.08;;;;;;;6.21;100.00;99497.25;4954365;28;20035;-77
2021/12/31 07:20:12;;;;;;;0.63;0.63;;;;;;;6.27;100.00;99500.75;4954468;28;20031;-76
2021/12/31 07:22:38;;;;;;;0.68;0.68;;;;;;;6.13;100.00;99502.31;4954370;28;20070;-77
2021/12/31 07:25:04;;;;;;;1.40;1.30;;;;;;;5.97;100.00;99498.69;4954530;28;20114;-77
2021/12/31 07:27:32;;;;;;;1.60;1.50;;;;;;;5.89;100.00;99496.00;4954205;28;20023;-73
2021/12/31 07:29:57;;;;;;;0.85;0.85;;;;;;;5.89;100.00;99493.41;4954414;28;20022;-74
2021/12/31 07:32:22;;;;;;;0.70;0.70;;;;;;;5.75;100.00;99494.09;4954287;28;20061;-78
2021/12/31 07:34:48;;;;;;;0.88;0.88;;;;;;;5.78;100.00;99500.16;4954320;28;20110;-73
2021/12/31 07:37:13;;;;;;;0.95;0.73;;;;;;;5.84;100.00;99499.34;4953814;28;20392;-78
2021/12/31 07:39:46;;;;;;;0.70;0.70;;;;;;;5.91;100.00;99491.78;4954202;28;20038;-76
2021/12/31 07:42:11;;;;;;;0.98;0.98;;;;;;;5.84;100.00;99484.78;4954104;28;20027;-77
2021/12/31 07:44:36;;;;;;;0.90;0.90;;;;;;;5.93;100.00;99482.34;4954252;28;20392;-76
2021/12/31 07:47:02;;;;;;;1.00;1.00;;;;;;;6.07;100.00;99489.38;4953951;28;20030;-73
2021/12/31 07:49:27;;;;;;;3.70;1.38;;;;;;;5.86;100.00;99492.53;4953980;28;20023;-78
2021/12/31 07:51:52;;;;;;;0.93;0.93;;;;;;;5.70;100.00;99493.16;4954096;28;20484;-77
2021/12/31 07:54:18;;;;;;;2.50;1.17;;;;;;;5.74;100.00;99495.81;4954000;28;20031;-73
2021/12/31 07:56:43;;;;;;;0.77;0.77;;;;;;;5.70;100.00;99499.16;4953779;28;20042;-79
2021/12/31 07:59:08;;;;;;;1.90;1.80;;;;;;;5.83;100.00;99493.34;4953953;28;20473;-80
2021/12/31 08:01:34;;;;;;;0.90;0.90;;;;;;;5.72;100.00;99499.22;4953904;28;20023;-79
2021/12/31 08:03:59;;;;;;;0.98;0.98;;;;;;;5.83;100.00;99493.34;4952617;28;20040;-80
2021/12/31 08:06:24;;;;;;;0.93;0.93;;;;;;;5.84;100.00;99495.06;4953664;28;20027;-80
2021/12/31 08:08:50;;;;;;;0.90;0.90;;;;;;;5.99;100.00;99498.72;4953671;28;20042;-80
2021/12/31 08:11:15;;;;;;;1.65;1.13;;;;;;;6.15;100.00;99504.06;4953925;28;20026;-75
2021/12/31 08:13:40;;;;;;;1.58;1.20;;;;;;;6.09;100.00;99505.69;4957257;28;20024;-78
2021/12/31 08:16:06;;;;;;;2.10;1.40;;;;;;;6.02;100.00;99504.75;4853612;28;20056;-79
2021/12/31 08:18:31;;;;;;;1.08;1.08;;;;;;;6.12;100.00;99505.72;4821541;28;20055;-80
2021/12/31 08:20:56;;;;;;;2.90;1.75;;;;;;;6.15;100.00;99501.50;4957706;28;20037;-80
2021/12/31 08:23:22;;;;;;;3.08;2.00;;;;;;;6.48;100.00;99496.66;4957812;28;20037;-75
2021/12/31 08:25:47;;;;;;;1.55;1.45;;;;;;;6.57;100.00;99496.75;4957504;28;20023;-79
2021/12/31 08:28:12;;;;;;;1.27;1.17;;;;;;;6.81;100.00;99494.41;4957741;28;20027;-79
2021/12/31 08:30:38;;;;;;;1.10;1.10;;;;;;;7.06;100.00;99500.66;4957627;28;20031;-79
2021/12/31 08:33:03;;;;;;;2.28;1.35;;;;;;;7.32;100.00;99502.56;4957604;28;20023;-74
2021/12/31 08:35:29;;;;;;;1.33;1.33;;;;;;;7.22;100.00;99504.19;4957379;28;20468;-75
2021/12/31 08:37:54;;;;;;;0.98;0.93;;;;;;;7.06;100.00;99502.34;4946238;28;20098;-78
2021/12/31 08:40:20;;;;;;;1.92;1.75;;;;;;;6.77;100.00;99499.53;4953294;29;20059;-79
2021/12/31 08:42:46;;;;;;;1.75;1.65;;;;;;;6.98;100.00;99506.59;4957422;28;20097;-75
2021/12/31 08:45:11;;;;;;;1.67;1.58;;;;;;;6.94;100.00;99491.09;4957245;28;20035;-75
2021/12/31 08:47:36;;;;;;;1.00;1.00;;;;;;;7.10;100.00;99489.50;4957177;28;20038;-79
2021/12/31 08:50:03;;;;;;;1.50;1.08;;;;;;;6.87;100.00;99494.50;4957243;28;20396;-80
2021/12/31 08:52:28;;;;;;;0.93;0.93;;;;;;;6.72;100.00;99491.78;4956043;29;20493;-79
2021/12/31 08:54:53;;;;;;;0.70;0.70;;;;;;;6.76;100.00;99484.91;4957300;28;20042;-79
2021/12/31 08:57:19;;;;;;;0.95;0.95;;;;;;;7.03;100.00;99487.75;4956903;28;20019;-79
2021/12/31 08:59:44;;;;;;;5.53;1.40;;;;;;;7.18;100.00;99494.72;4912517;28;20047;-79
2021/12/31 09:02:11;;;;;;;1.63;1.25;;;;;;;7.99;97.17;99483.13;4966321;28;20023;-79
2021/12/31 09:04:36;;;;;;;1.65;1.55;;;;;;;10.17;84.42;99467.50;4957014;28;20114;-79
2021/12/31 09:07:02;;;;;;;2.10;1.55;;;;;;;11.96;74.90;99459.03;4949372;28;20071;-75
2021/12/31 09:09:27;;;;;;;1.45;1.17;;;;;;;12.77;71.04;99465.69;4948923;28;20039;-80
2021/12/31 09:11:54;;;;;;;1.92;1.20;;;;;;;13.73;65.66;99470.97;4957079;28;20024;-80
2021/12/31 09:14:20;;;;;;;1.40;1.30;;;;;;;14.57;62.16;99469.19;4956901;28;20035;-81
2021/12/31 09:16:47;;;;;;;0.85;0.85;;;;;;;15.55;58.34;99466.72;4956444;28;20476;-79
2021/12/31 09:19:13;;;;;;;0.75;0.75;;;;;;;14.55;61.36;99475.31;4956828;28;20082;-77
2021/12/31 09:21:39;;;;;;;0.82;0.75;;;;;;;16.41;56.55;99472.13;4956584;28;20034;-79
2021/12/31 09:24:04;;;;;;;0.52;0.52;;;;;;;16.75;55.63;99465.88;4954984;28;20106;-79
2021/12/31 09:26:30;;;;;;;1.85;1.00;;;;;;;18.44;51.80;99466.88;4955739;28;20403;-74
2021/12/31 09:28:55;;;;;;;2.05;1.20;;;;;;;16.43;54.15;99483.38;4956544;28;20033;-79
2021/12/31 09:31:20;;;;;;;1.08;1.05;;;;;;;16.32;54.83;99477.63;4956505;28;20062;-75
2021/12/31 09:33:46;;;;;;;1.40;1.30;;;;;;;15.81;56.63;99471.28;4956471;28;20027;-75
2021/12/31 09:36:11;;;;;;;1.42;1.02;;;;;;;17.39;53.42;99469.81;4950971;28;20337;-74
2021/12/31 09:38:36;;;;;;;3.00;1.67;;;;;;;17.92;50.63;99474.06;4946288;29;20090;-73
2021/12/31 09:41:02;;;;;;;2.22;1.58;;;;;;;19.67;47.83;99463.53;4956349;28;20019;-73
2021/12/31 09:43:28;;;;;;;1.50;1.38;;;;;;;21.17;43.72;99460.88;4955010;28;20550;-74
2021/12/31 09:45:53;;;;;;;3.03;1.20;;;;;;;18.98;46.65;99468.22;4955951;28;20046;-74
2021/12/31 09:48:21;;;;;;;1.48;1.17;;;;;;;19.55;46.78;99456.16;4956201;28;20066;-77
2021/12/31 09:50:49;;;;;;;1.20;1.10;;;;;;;19.73;46.92;99457.16;4956169;28;20035;-79
2021/12/31 09:53:16;;;;;;;1.33;1.10;;;;;;;20.59;45.08;99464.59;4939672;28;20036;-79
2021/12/31 09:55:47;;;;;;;4.30;1.25;;;;;;;19.49;46.93;99453.81;4936612;29;20428;-79
2021/12/31 09:58:15;;;;;;;0.80;0.73;;;;;;;20.31;44.31;99449.25;4936707;29;20098;-79
2021/12/31 10:00:46;;;;;;;1.67;1.10;;;;;;;20.51;45.40;99454.44;4936790;29;20389;-73
2021/12/31 10:03:25;;;;;;;1.13;1.02;;;;;;;22.07;41.75;99449.13;4936710;29;20035;-74
2021/12/31 10:05:51;;;;;;;1.65;1.17;;;;;;;24.11;38.80;99439.88;4936529;29;20023;-77
2021/12/31 10:08:23;;;;;;;1.33;1.23;;;;;;;26.01;34.55;99449.31;4944493;29;20031;-74
2021/12/31 10:11:27;;;;;;;1.77;1.05;;;;;;;24.59;36.34;99453.63;4955488;29;20572;-74
2021/12/31 10:13:57;;;;;;;1.25;1.13;;;;;;;23.89;38.02;99439.53;4924301;29;20553;-77
2021/12/31 10:16:29;;;;;;;0.95;0.95;;;;;;;21.45;42.28;99447.16;4914831;29;20179;-77
2021/12/31 10:19:18;;;;;;;1.23;1.10;;;;;;;22.40;40.54;99434.19;4917078;29;20118;-75
2021/12/31 10:21:54;;;;;;;1.40;1.30;;;;;;;23.45;39.42;99437.75;4936428;29;20015;-79
2021/12/31 10:24:26;;;;;;;1.38;1.08;;;;;;;21.63;41.93;99446.22;4936419;29;20489;-79
2021/12/31 10:27:14;;;;;;;1.30;1.00;;;;;;;22.40;41.17;99442.09;4936218;29;20034;-78
2021/12/31 10:29:54;;;;;;;3.23;2.27;;;;;;;21.11;43.49;99445.38;4935581;29;20075;-79
2021/12/31 10:32:22;;;;;;;3.42;1.50;;;;;;;22.98;41.15;99430.88;4936290;29;20022;-78
2021/12/31 10:34:48;;;;;;;1.75;1.45;;;;;;;23.47;39.06;99422.66;4934179;29;20091;-78
2021/12/31 10:37:17;;;;;;;2.47;1.60;;;;;;;25.46;36.64;99415.13;4942051;29;20023;-78
2021/12/31 10:39:44;;;;;;;1.38;1.17;;;;;;;26.19;35.28;99409.13;4947203;28;20031;-77
2021/12/31 10:42:14;;;;;;;0.93;0.93;;;;;;;26.36;34.69;99406.09;4955093;28;20028;-75
2021/12/31 10:44:41;;;;;;;0.73;0.73;;;;;;;25.67;35.17;99413.63;4947923;28;20042;-77
2021/12/31 10:47:09;;;;;;;1.73;0.57;;;;;;;25.83;35.49;99400.19;4948887;29;20032;-77
2021/12/31 10:50:00;;;;;;;1.23;0.40;;;;;;;26.86;33.40;99391.72;4955020;28;20027;-77
2021/12/31 10:52:40;;;;;;;0.50;0.50;;;;;;;27.01;33.50;99399.50;4954940;28;20208;-77
2021/12/31 10:55:20;;;;;;;0.40;0.40;;;;;;;28.20;31.60;99395.53;4955061;28;20027;-77
2021/12/31 10:57:47;;;;;;;1.08;0.73;;;;;;;24.35;37.46;99397.75;4954679;28;20023;-77
2021/12/31 11:00:14;;;;;;;0.45;0.45;;;;;;;23.24;40.46;99400.25;4954823;28;20027;-75
2021/12/31 11:02:40;;;;;;;0.68;0.47;;;;;;;21.09;44.81;99405.09;4954639;28;20379;-79
2021/12/31 11:05:06;;;;;;;0.43;0.43;;;;;;;18.52;51.27;99404.44;4954793;28;20023;-79
2021/12/31 11:07:32;;;;;;;0.63;0.40;;;;;;;17.44;54.16;99396.28;4946326;28;20054;-79
2021/12/31 11:09:59;;;;;;;0.70;0.70;;;;;;;16.49;58.80;99391.66;4947647;29;20082;-74
2021/12/31 11:12:27;;;;;;;0.75;0.75;;;;;;;14.95;64.48;99378.69;4954717;28;20027;-74
2021/12/31 11:14:56;;;;;;;0.43;0.43;;;;;;;14.40;66.93;99380.88;4945591;28;20030;-78
2021/12/31 11:17:24;;;;;;;0.40;0.40;;;;;;;14.41;67.71;99381.75;4950328;29;20121;-77
2021/12/31 11:19:50;;;;;;;0.80;0.47;;;;;;;14.84;66.27;99401.56;4954551;28;20038;-77
2021/12/31 11:22:28;;;;;;;0.52;0.40;;;;;;;17.71;58.04;99376.09;4954612;28;20050;-78
2021/12/31 11:25:17;;;;;;;0.30;0.30;;;;;;;21.15;48.66;99374.00;4954754;28;20568;-75
2021/12/31 11:27:48;;;;;;;0.40;0.40;;;;;;;22.26;44.52;99359.22;4954170;28;20078;-78
2021/12/31 11:30:37;;;;;;;0.47;0.47;;;;;;;23.51;40.71;99355.41;4938146;23;20097;-72
2021/12/31 11:33:17;;;;;;;0.30;0.30;;;;;;;22.37;42.57;99360.41;4915791;29;20068;-73
2021/12/31 11:35:44;;;;;;;1.70;0.40;;;;;;;24.18;39.01;99347.69;4916127;29;20122;-73
2021/12/31 11:38:23;;;;;;;0.60;0.60;;;;;;;24.43;38.90;99349.59;4923049;29;20035;-73
2021/12/31 11:41:00;;;;;;;;;;;;;;;22.70;41.17;99347.88;4916062;29;20074;-73
2021/12/31 11:43:28;;;;;;;0.30;0.30;;;;;;;23.20;40.68;99346.69;4910873;29;19911;-73
2021/12/31 11:46:12;;;;;;;0.70;0.70;;;;;;;25.02;37.87;99340.28;4888188;29;20039;-74
2021/12/31 11:48:50;;;;;;;0.50;0.50;;;;;;;22.19;41.82;99341.16;4856655;29;20041;-73
2021/12/31 11:51:28;;;;;;;0.28;0.28;;;;;;;24.75;37.55;99329.72;4878565;29;20482;-73
2021/12/31 11:54:00;;;;;;;1.85;1.08;;;;;;;23.54;40.02;99328.75;4878646;29;20063;-73
2021/12/31 11:59:16;;;;;;;0.32;0.32;;;;;;;22.92;41.54;99329.03;4878361;29;20605;-73
2021/12/31 12:01:43;;;;;;;0.20;0.20;;;;;;;24.49;38.02;99328.00;4878589;29;20099;-77
2021/12/31 12:04:29;;;;;;;0.35;0.35;;;;;;;24.30;38.89;99326.53;4877118;29;20029;-77
2021/12/31 12:06:58;;;;;;;0.95;0.30;;;;;;;26.39;35.33;99323.47;4900048;29;20032;-77
2021/12/31 12:09:43;;;;;;;0.63;0.63;;;;;;;25.04;37.07;99334.84;4893110;29;20042;-77
2021/12/31 12:12:15;;;;;;;0.65;0.50;;;;;;;22.92;40.56;99344.00;4895613;29;20059;-76
2021/12/31 12:14:49;;;;;;;0.25;0.20;;;;;;;23.99;39.03;99335.63;4896709;29;20494;-77
2021/12/31 12:17:16;;;;;;;0.98;0.60;;;;;;;22.89;41.53;99349.50;4896679;29;20029;-77
2021/12/31 12:19:45;;;;;;;0.38;0.38;;;;;;;23.73;40.74;99344.34;4896786;29;20103;-77
2021/12/31 12:22:22;;;;;;;0.32;0.32;;;;;;;22.15;43.80;99344.94;4895571;29;20043;-76
2021/12/31 12:24:49;;;;;;;0.22;0.22;;;;;;;23.01;43.38;99338.16;4896924;29;20080;-76
2021/12/31 12:27:14;;;;;;;0.25;0.25;;;;;;;24.91;38.10;99341.97;4896735;29;20037;-77
2021/12/31 12:29:41;;;;;;;0.20;0.20;;;;;;;24.28;40.26;99352.28;4896628;29;20029;-77
2021/12/31 12:32:11;;;;;;;0.30;0.30;;;;;;;22.65;42.21;99365.81;4896882;29;20028;-77
2021/12/31 12:34:36;;;;;;;0.38;0.38;;;;;;;20.57;47.98;99376.06;4896695;29;20059;-77
2021/12/31 12:37:02;;;;;;;1.65;0.70;;;;;;;19.05;51.64;99385.63;4896534;29;20056;-74
2021/12/31 12:39:27;;;;;;;2.58;0.90;;;;;;;17.98;55.90;99380.28;4896624;29;20071;-74
2021/12/31 12:41:54;;;;;;;3.20;1.50;;;;;;;16.86;58.74;99386.06;4896591;29;20024;-74
2021/12/31 12:44:19;;;;;;;3.47;1.80;;;;;;;16.69;59.53;99373.53;4896594;29;20107;-74
2021/12/31 12:46:58;;;;;;;0.57;0.57;;;;;;;16.88;59.71;99357.25;4896354;29;20129;-74
2021/12/31 12:49:24;;;;;;;1.35;1.00;;;;;;;16.67;60.18;99364.88;4896548;29;20025;-74
2021/12/31 12:51:50;;;;;;;0.52;0.52;;;;;;;16.39;61.94;99364.06;4896744;29;20235;-73
2021/12/31 12:54:23;;;;;;;0.63;0.63;;;;;;;16.55;62.25;99360.06;4896685;29;20360;-73
2021/12/31 12:56:51;;;;;;;0.43;0.43;;;;;;;16.40;62.33;99363.16;4896348;29;20062;-73
2021/12/31 12:59:22;;;;;;;0.30;0.30;;;;;;;16.29;65.14;99362.63;4897861;29;20112;-72
2021/12/31 13:01:49;;;;;;;0.80;0.80;;;;;;;16.11;63.42;99364.94;4899821;29;20068;-72
2021/12/31 13:04:17;;;;;;;1.55;1.13;;;;;;;15.90;63.90;99370.81;4900237;29;20029;-72
2021/12/31 13:07:10;;;;;;;0.73;0.55;;;;;;;16.28;64.03;99366.16;4899720;29;20390;-72
2021/12/31 13:09:36;;;;;;;1.00;0.47;;;;;;;15.91;63.21;99356.88;4899815;29;20107;-74
2021/12/31 13:12:04;;;;;;;0.40;0.40;;;;;;;15.42;64.98;99342.56;4899762;29;20063;-73
2021/12/31 13:14:32;;;;;;;1.80;0.68;;;;;;;15.50;66.48;99345.84;4899624;29;20036;-73
2021/12/31 13:16:57;;;;;;;1.63;0.57;;;;;;;15.57;65.61;99352.59;4899546;29;20032;-73
2021/12/31 13:19:31;;;;;;;0.30;0.30;;;;;;;15.67;65.70;99338.41;4900021;29;20071;-73
2021/12/31 13:21:59;;;;;;;0.68;0.68;;;;;;;15.59;66.08;99332.50;4899652;29;20032;-73
2021/12/31 13:24:26;;;;;;;1.27;0.50;;;;;;;15.19;66.77;99313.69;4899801;29;20119;-73
2021/12/31 13:26:57;;;;;;;0.45;0.40;;;;;;;14.93;67.07;99312.63;4899345;29;20028;-72
2021/12/31 13:29:49;;;;;;;0.40;0.40;;;;;;;15.02;70.20;99308.91;4899539;29;20029;-72
2021/12/31 13:32:19;;;;;;;2.50;0.45;;;;;;;14.81;70.80;99300.78;4898029;29;20059;-72
2021/12/31 13:34:53;;;;;;;;;;;;;;;14.76;69.16;99310.47;4899684;29;20055;-72
2021/12/31 13:37:30;;;;;;;0.50;0.50;;;;;;;14.71;70.24;99303.66;4899091;29;19950;-72
2021/12/31 13:40:20;;;;;;;0.40;0.40;;;;;;;15.00;69.54;99288.09;4892085;29;20029;-74
2021/12/31 13:43:12;;;;;;;0.30;0.30;;;;;;;15.48;67.24;99289.34;4899227;29;20028;-74
2021/12/31 13:45:46;;;;;;;0.45;0.45;;;;;;;15.46;66.63;99281.53;4899694;29;20424;-74
2021/12/31 13:48:13;;;;;;;0.55;0.55;;;;;;;15.22;66.94;99271.81;4899323;29;20080;-73
2021/12/31 13:50:39;;;;;;;0.45;0.45;;;;;;;15.27;67.22;99264.69;4899356;29;20484;-72
2021/12/31 13:53:05;;;;;;;2.75;0.47;;;;;;;14.82;68.04;99272.94;4899008;29;20478;-77
2021/12/31 13:55:30;;;;;;;0.70;0.70;;;;;;;15.02;67.31;99270.63;4899169;29;20044;-76
2021/12/31 13:58:00;;;;;;;0.43;0.43;;;;;;;14.57;68.96;99263.16;4899256;29;20462;-76
2021/12/31 14:00:27;;;;;;;0.40;0.40;;;;;;;14.89;67.89;99270.13;4899183;29;20228;-73
2021/12/31 14:02:53;;;;;;;0.77;0.70;;;;;;;14.86;69.39;99256.28;4898938;29;20355;-73
2021/12/31 14:05:24;;;;;;;0.50;0.50;;;;;;;14.84;68.56;99271.13;4898998;29;20107;-73
2021/12/31 14:10:31;;;;;;;0.40;0.40;;;;;;;14.40;71.58;99286.16;4897492;29;20032;-73
2021/12/31 14:13:04;;;;;;;0.60;0.60;;;;;;;14.47;70.07;99271.22;4898656;29;20031;-73
2021/12/31 14:15:32;;;;;;;0.50;0.50;;;;;;;14.45;70.49;99273.00;4898422;29;20080;-72
2021/12/31 14:18:04;;;;;;;0.70;0.70;;;;;;;14.43;70.56;99280.88;4898538;29;20035;-72
2021/12/31 14:20:32;;;;;;;0.80;0.38;;;;;;;14.39;71.16;99292.28;4898496;29;20028;-74
2021/12/31 14:22:58;;;;;;;0.43;0.43;;;;;;;14.30;71.75;99295.09;4897213;29;20155;-73
2021/12/31 14:25:26;;;;;;;1.08;0.98;;;;;;;14.22;72.65;99297.06;4898528;29;20025;-74
2021/12/31 14:27:53;;;;;;;0.65;0.65;;;;;;;14.25;73.31;99307.41;4897079;29;20027;-74
2021/12/31 14:30:19;;;;;;;1.73;1.25;;;;;;;14.22;73.66;99299.66;4897026;29;20039;-74
2021/12/31 14:32:45;;;;;;;1.63;0.95;;;;;;;14.19;73.39;99299.72;4897207;29;20084;-75
2021/12/31 14:35:14;;;;;;;0.70;0.70;;;;;;;14.30;73.01;99293.34;4897060;29;20029;-75
2021/12/31 14:37:41;;;;;;;1.08;0.85;;;;;;;14.47;72.16;99302.53;4897895;29;20029;-74
2021/12/31 14:40:12;;;;;;;2.33;0.50;;;;;;;14.54;71.49;99311.91;4912587;29;20051;-74
2021/12/31 14:42:37;;;;;;;2.90;1.20;;;;;;;14.54;72.14;99325.81;4898288;29;20478;-74
2021/12/31 14:45:05;;;;;;;1.95;0.82;;;;;;;14.36;73.86;99334.09;4896762;29;20071;-74
2021/12/31 14:47:31;;;;;;;1.95;1.58;;;;;;;14.08;75.24;99337.34;4897906;29;20044;-74
2021/12/31 14:49:56;;;;;;;2.42;1.17;;;;;;;13.90;76.45;99332.53;4897990;29;20036;-72
2021/12/31 14:52:24;;;;;;;1.00;1.00;;;;;;;13.84;76.99;99333.53;4898200;29;20112;-74
2021/12/31 14:54:49;;;;;;;1.30;0.82;;;;;;;13.66;77.84;99338.28;4898424;29;20417;-74
2021/12/31 14:57:14;;;;;;;0.98;0.90;;;;;;;13.47;79.35;99336.06;4897834;29;20108;-76
2021/12/31 14:59:40;;;;;;;8.70;3.40;;;;;;;13.38;81.02;99334.50;4897918;29;20032;-74
2021/12/31 15:02:05;;;;;;;1.02;1.02;;;;;;;13.15;81.73;99315.00;4897657;29;20075;-72
2021/12/31 15:04:31;;;;;;;1.35;1.25;;;;;;;13.00;82.46;99301.41;4897882;29;20036;-73
2021/12/31 15:06:57;;;;;;;0.60;0.60;;;;;;;12.88;83.02;99306.00;4897270;29;20378;-69
2021/12/31 15:09:22;;;;;;;1.38;1.27;;;;;;;12.67;83.72;99296.81;4897652;29;20028;-68
2021/12/31 15:11:48;;;;;;;1.60;1.50;;;;;;;12.51;84.47;99302.31;4897774;29;20398;-68
2021/12/31 15:14:13;;;;;;;0.88;0.88;;;;;;;12.31;85.47;99304.38;4897671;29;20481;-69
2021/12/31 15:16:39;;;;;;;2.88;1.02;;;;;;;12.12;86.43;99303.81;4897254;29;20474;-72
2021/12/31 15:19:06;;;;;;;1.52;1.17;;;;;;;11.87;88.65;99310.28;4897998;29;20033;-71
2021/12/31 15:21:36;;;;;;;5.10;3.65;;;;;;;11.56;90.75;99314.13;4896990;29;20021;-71
2021/12/31 15:24:02;;;;;;;6.85;3.88;;;;;;;11.25;91.84;99325.75;4897719;29;20032;-71
2021/12/31 15:26:27;;;;;;;9.00;4.80;;;;;;;11.23;92.14;99332.72;4897270;29;20439;-71
2021/12/31 15:28:53;;;;;;;2.88;2.33;;;;;;;11.06;93.07;99330.31;4897115;29;20036;-72
2021/12/31 15:31:18;;;;;;;2.67;2.42;;;;;;;11.15;92.02;99337.13;4897444;29;20055;-72
2021/12/31 15:33:44;;;;;;;7.05;1.75;;;;;;;11.01;93.04;99332.94;4897254;29;20039;-72
2021/12/31 15:36:11;;;;;;;1.42;1.33;;;;;;;10.92;94.14;99327.00;4897340;29;20033;-72
2021/12/31 15:38:37;;;;;;;1.08;1.02;;;;;;;10.80;94.31;99328.00;4897291;29;20107;-72
2021/12/31 15:41:03;;;;;;;1.10;1.05;;;;;;;10.60;96.13;99327.34;4899269;29;20524;-72
2021/12/31 15:43:29;;;;;;;2.28;1.90;;;;;;;10.64;96.34;99334.22;4916008;29;20024;-72
2021/12/31 15:45:54;;;;;;;1.10;1.10;;;;;;;10.60;96.23;99342.88;4912880;29;20029;-74
2021/12/31 15:48:19;;;;;;;7.72;3.05;;;;;;;10.45;96.41;99334.38;4897129;29;20039;-72
2021/12/31 15:50:44;;;;;;;1.85;1.75;;;;;;;10.37;97.04;99337.88;4897388;29;20108;-74
2021/12/31 15:53:10;;;;;;;4.00;3.03;;;;;;;10.29;96.87;99325.00;4897020;29;20503;-74
2021/12/31 15:55:35;;;;;;;4.78;1.80;;;;;;;10.16;97.16;99321.63;4897451;29;20028;-75
2021/12/31 15:58:02;;;;;;;2.60;2.13;;;;;;;9.95;98.59;99325.19;4896831;29;20028;-72
2021/12/31 16:00:28;;;;;;;4.35;2.42;;;;;;;9.85;99.87;99320.09;4897048;29;20435;-72